Tropical Cyclones
[Index]
Main Index Home Page Stock Weather Photos Extreme Storms Discussion Storm News and Storm Chasing Reports Tropical Cyclones / Hurricanes / Typhoons Weather Data and Links Wild Fires / Bushfires Weather Observation Techniques Weather Picture Catalogue Tornado Pictures and Reports Stock Video Footage and DVDs for sale
Season 1971-1972 Tropical Cyclone DAISY Track Map
Season 1971-1972 Summaries: [BoM-AU] [JTWC-AU] [JTWC-SIO] [JTWC-SPAC] [JTWC-SH]
<<- Previous TC | JTWC 1971-1972 Season | Next TC ->>

click for intensity scale information  Lat/long Grid: Show Hide

 Date Labels: Show Hide

Joint Typhoon Warning Centre Cyclone Data

Name: DAISY
Number: 787 / 7216

06 Feb 1972 00:00 UTC to 13 Feb 1972 18:00 UTC

    date/time    lat    long     hPa   cat  kts
1972-02-06 00   14.9   150.0                  25          
1972-02-06 06   15.1   150.0                  25          
1972-02-06 12   15.2   150.0                  25          
1972-02-06 18   15.0   150.0                  30          
1972-02-07 00   15.1   150.3                  30          
1972-02-07 06   15.4   150.8                  30          
1972-02-07 12   15.9   151.4                  35          
1972-02-07 18   16.3   152.1            1     45          
1972-02-08 00   16.8   152.8            1     50          
1972-02-08 06   17.4   153.4            1     40          
1972-02-08 12   18.1   154.0                  35          
1972-02-08 18   18.6   154.8                  35          
1972-02-09 00   19.1   155.6                  35          
1972-02-09 06   20.6   156.1                  30          
1972-02-09 12   21.7   156.0                  25          
1972-02-09 18   22.3   155.7            1     50          
1972-02-10 00   22.8   155.3            2     65          
1972-02-10 06   23.2   155.0            2     60          
1972-02-10 12   23.7   154.6            2     60          
1972-02-10 18   24.0   154.1            3     75          
1972-02-11 00   24.4   153.6            3     80          
1972-02-11 06   25.2   153.4            2     65          
1972-02-11 12   25.9   153.2            1     50          
1972-02-11 18   26.3   153.0                  35          
1972-02-12 00   26.7   153.1                  25          
1972-02-12 06   27.0   153.5                  30          
1972-02-12 12   27.2   154.1            1     40          
1972-02-12 18   27.3   154.7            1     40          
1972-02-13 00   27.4   155.4            1     40          
1972-02-13 06   27.5   156.2                  30          
1972-02-13 12   27.6   156.9                  25          
1972-02-13 18   27.6   157.6                  25          
Winds are 1-min average.

Tropical cyclone tracks developed by Michael Bath using data from the Joint Typhoon Warning Centre Best Tracks and Google Maps.


[Australian Severe Weather index] [Copyright Notice] [Email Contacts] [Search This Site] [Privacy Policy]
Document: tropical_cyclone_daisy.htm Updated: 18 September 2016